createdAt,value
2023-04-15T00:00:53.797Z,5.47
2023-04-15T00:05:47.326Z,5.45
2023-04-15T00:10:40.740Z,5.41
2023-04-15T00:15:35.459Z,5.67
2023-04-15T00:20:28.884Z,5.55
2023-04-15T00:25:22.199Z,5.51
2023-04-15T00:30:15.589Z,5.29
2023-04-15T00:35:10.951Z,5.13
2023-04-15T00:40:05.925Z,5.03
2023-04-15T00:44:59.321Z,5.04
2023-04-15T00:49:52.884Z,5.03
2023-04-15T00:54:47.595Z,5.07
2023-04-15T00:59:41.173Z,5.06
2023-04-15T01:04:34.550Z,5.04
2023-04-15T01:09:28.310Z,5.03
2023-04-15T01:14:22.990Z,4.88
2023-04-15T01:19:19.093Z,4.77
2023-04-15T01:24:14.784Z,4.78
2023-04-15T01:29:09.597Z,4.87
2023-04-15T01:34:02.917Z,4.91
2023-04-15T01:38:58.550Z,4.91
2023-04-15T01:43:52.599Z,4.82
2023-04-15T01:48:47.325Z,4.80
2023-04-15T01:53:40.662Z,4.73
2023-04-15T01:58:34.186Z,4.50
2023-04-15T02:03:27.905Z,4.54
2023-04-15T02:08:22.689Z,4.65
2023-04-15T02:13:17.063Z,4.42
2023-04-15T02:18:10.416Z,4.29
2023-04-15T02:23:07.312Z,4.26
2023-04-15T02:28:02.041Z,4.16
2023-04-15T02:32:56.021Z,4.19
2023-04-15T02:37:49.399Z,4.30
2023-04-15T02:42:44.382Z,4.34
2023-04-15T02:47:41.441Z,4.24
2023-04-15T02:52:34.769Z,4.36
2023-04-15T02:57:29.560Z,4.11
2023-04-15T03:02:23.066Z,4.04
2023-04-15T03:07:19.484Z,4.11
2023-04-15T03:12:12.819Z,4.18
2023-04-15T03:17:06.087Z,4.04
2023-04-15T03:21:59.357Z,4.07
2023-04-15T03:26:55.165Z,4.11
2023-04-15T03:31:48.457Z,4.06
2023-04-15T03:36:41.818Z,4.04
2023-04-15T03:41:35.116Z,3.93
2023-04-15T03:46:29.826Z,4.07
2023-04-15T03:51:23.216Z,4.08
2023-04-15T03:56:16.523Z,4.09
2023-04-15T04:01:10.811Z,4.06
2023-04-15T04:06:05.605Z,4.13
2023-04-15T04:10:58.914Z,3.86
2023-04-15T04:15:52.200Z,3.66
2023-04-15T04:20:45.841Z,3.51
2023-04-15T04:25:40.545Z,3.75
2023-04-15T04:30:34.061Z,3.64
2023-04-15T04:35:27.486Z,3.18
2023-04-15T04:40:20.887Z,3.53
2023-04-15T04:45:15.720Z,3.73
2023-04-15T04:50:10.634Z,3.92
2023-04-15T04:55:05.974Z,4.07
2023-04-15T04:59:59.225Z,4.11
2023-04-15T05:04:54.489Z,3.99
2023-04-15T05:09:47.853Z,4.19
2023-04-15T05:14:41.148Z,4.22
2023-04-15T05:19:34.475Z,4.29
2023-04-15T05:24:29.161Z,4.58
2023-04-15T05:29:22.540Z,4.77
2023-04-15T05:34:17.535Z,4.60
2023-04-15T05:39:10.888Z,4.87
2023-04-15T05:44:06.213Z,5.29
2023-04-15T05:48:59.717Z,5.24
2023-04-15T05:53:53.172Z,5.22
2023-04-15T05:58:46.525Z,5.31
2023-04-15T06:03:41.424Z,5.54
2023-04-15T06:08:37.579Z,5.95
2023-04-15T06:13:31.041Z,5.89
2023-04-15T06:18:24.493Z,5.79
2023-04-15T06:23:19.194Z,5.96
2023-04-15T06:28:12.428Z,6.01
2023-04-15T06:33:06.596Z,6.33
2023-04-15T06:37:59.941Z,6.18
2023-04-15T06:42:54.835Z,6.26
2023-04-15T06:47:48.201Z,6.53
2023-04-15T06:52:41.595Z,6.63
2023-04-15T06:57:35.130Z,6.97
2023-04-15T07:02:30.082Z,7.24
2023-04-15T07:07:23.558Z,7.34
2023-04-15T07:12:16.935Z,7.42
2023-04-15T07:17:11.488Z,7.48
2023-04-15T07:22:06.571Z,7.76
2023-04-15T07:27:01.134Z,7.61
2023-04-15T07:31:56.674Z,7.56
2023-04-15T07:36:50.648Z,7.98
2023-04-15T07:41:45.661Z,8.20
2023-04-15T07:46:39.250Z,8.31
2023-04-15T07:51:32.637Z,8.39
2023-04-15T07:56:26.544Z,8.48
2023-04-15T08:01:21.687Z,8.54
2023-04-15T08:06:15.077Z,8.51
2023-04-15T08:11:08.437Z,8.54
2023-04-15T08:16:22.938Z,8.66
2023-04-15T08:21:17.736Z,8.73
2023-04-15T08:26:11.184Z,8.63
2023-04-15T08:31:04.609Z,8.52
2023-04-15T08:35:59.394Z,8.62
2023-04-15T08:40:52.871Z,8.73
2023-04-15T08:45:48.727Z,8.93
2023-04-15T08:50:42.443Z,8.85
2023-04-15T08:55:44.740Z,8.87
2023-04-15T09:00:38.885Z,8.72
2023-04-15T09:05:34.649Z,8.93
2023-04-15T09:10:28.718Z,9.33
2023-04-15T09:15:25.816Z,9.58
2023-04-15T09:20:19.820Z,9.74
2023-04-15T09:25:32.165Z,9.77
2023-04-15T09:30:30.113Z,10.00
2023-04-15T09:35:26.277Z,10.07
2023-04-15T09:40:34.060Z,10.15
2023-04-15T09:45:29.634Z,10.45
2023-04-15T09:50:23.137Z,10.59
2023-04-15T09:55:20.398Z,10.53
2023-04-15T10:00:15.247Z,10.79
2023-04-15T10:05:15.077Z,10.89
2023-04-15T10:10:10.176Z,10.97
2023-04-15T10:15:08.057Z,10.98
2023-04-15T10:20:03.652Z,10.95
2023-04-15T10:24:59.941Z,11.06
2023-04-15T10:29:53.416Z,11.21
2023-04-15T10:34:48.540Z,11.36
2023-04-15T10:39:44.607Z,11.38
2023-04-15T10:44:40.417Z,11.53
2023-04-15T10:49:33.860Z,11.59
2023-04-15T10:54:34.659Z,11.76
2023-04-15T10:59:30.499Z,11.75
2023-04-15T11:04:57.530Z,11.85
2023-04-15T11:09:50.958Z,11.74
2023-04-15T11:14:44.399Z,11.72
2023-04-15T11:19:39.216Z,11.70
2023-04-15T11:24:33.986Z,11.70
2023-04-15T11:29:32.389Z,11.92
2023-04-15T11:34:25.746Z,12.24
2023-04-15T11:39:24.055Z,12.62
2023-04-15T11:44:21.616Z,13.01
2023-04-15T11:49:28.860Z,13.29
2023-04-15T11:54:22.320Z,13.26
2023-04-15T11:59:15.856Z,13.08
2023-04-15T12:04:15.134Z,13.04
2023-04-15T12:09:13.580Z,13.08
2023-04-15T12:14:14.467Z,13.00
2023-04-15T12:19:11.539Z,12.79
2023-04-15T12:24:09.676Z,12.66
2023-04-15T12:29:05.109Z,12.58
2023-04-15T12:33:59.073Z,12.51
2023-04-15T12:38:52.406Z,12.43
2023-04-15T12:43:47.857Z,12.54
2023-04-15T12:48:41.976Z,12.72
2023-04-15T12:58:56.407Z,12.78
2023-04-15T13:03:51.252Z,12.75
2023-04-15T13:08:57.279Z,12.73
2023-04-15T13:13:52.743Z,12.82
2023-04-15T13:18:47.470Z,12.80
2023-04-15T13:23:40.832Z,12.91
2023-04-15T13:28:34.095Z,12.94
2023-04-15T13:33:27.990Z,12.89
2023-04-15T13:38:22.693Z,13.10
2023-04-15T13:43:16.333Z,13.13
2023-04-15T13:48:09.646Z,13.23
2023-04-15T13:53:02.949Z,13.32
2023-04-15T13:58:00.047Z,13.36
2023-04-15T14:02:53.470Z,13.67
2023-04-15T14:07:47.103Z,13.72
2023-04-15T14:12:40.487Z,13.75
2023-04-15T14:17:38.635Z,13.68
2023-04-15T14:22:32.018Z,13.56
2023-04-15T14:27:25.325Z,13.43
2023-04-15T14:32:18.694Z,13.45
2023-04-15T14:37:13.509Z,13.58
2023-04-15T14:42:06.818Z,13.53
2023-04-15T14:47:00.189Z,13.37
2023-04-15T14:51:53.650Z,13.11
2023-04-15T14:56:48.305Z,13.00
2023-04-15T15:01:41.886Z,13.01
2023-04-15T15:06:35.775Z,13.01
2023-04-15T15:11:29.745Z,12.85
2023-04-15T15:16:24.629Z,12.76
2023-04-15T15:21:18.126Z,12.48
2023-04-15T15:26:11.698Z,12.20
2023-04-15T15:31:06.103Z,11.92
2023-04-15T15:36:01.223Z,11.86
2023-04-15T15:40:54.825Z,11.97
2023-04-15T15:45:51.602Z,11.96
2023-04-15T15:50:45.631Z,11.92
2023-04-15T15:55:40.350Z,11.91
2023-04-15T16:00:33.698Z,11.77
2023-04-15T16:05:27.066Z,11.75
2023-04-15T16:10:20.544Z,11.60
2023-04-15T16:15:15.377Z,11.46
2023-04-15T16:20:10.178Z,11.32
2023-04-15T16:25:03.813Z,11.29
2023-04-15T16:29:57.182Z,11.26
2023-04-15T16:34:53.206Z,11.22
2023-04-15T16:39:46.462Z,11.06
2023-04-15T16:44:39.994Z,11.06
2023-04-15T16:49:34.953Z,11.02
2023-04-15T16:54:30.249Z,10.75
2023-04-15T16:59:23.575Z,10.53
2023-04-15T17:04:16.912Z,10.61
2023-04-15T17:09:10.255Z,10.54
2023-04-15T17:14:05.872Z,10.54
2023-04-15T17:18:59.219Z,10.71
2023-04-15T17:23:53.128Z,10.63
2023-04-15T17:28:46.671Z,10.56
2023-04-15T17:34:02.141Z,10.53
2023-04-15T17:38:57.688Z,10.46
2023-04-15T17:43:51.024Z,10.45
2023-04-15T17:48:45.799Z,10.52
2023-04-15T17:53:39.126Z,10.44
2023-04-15T17:58:32.924Z,10.38
2023-04-15T18:03:26.543Z,10.44
2023-04-15T18:08:21.495Z,10.33
2023-04-15T18:13:14.804Z,10.12
2023-04-15T18:18:08.117Z,10.07
2023-04-15T18:23:01.564Z,10.05
2023-04-15T18:27:56.491Z,9.88
2023-04-15T18:32:50.061Z,9.94
2023-04-15T18:37:43.438Z,9.73
2023-04-15T18:42:36.776Z,9.56
2023-04-15T18:47:31.612Z,9.59
2023-04-15T18:52:24.947Z,9.65
2023-04-15T18:57:28.767Z,9.65
2023-04-15T19:02:25.820Z,9.67
2023-04-15T19:07:20.711Z,9.57
2023-04-15T19:12:14.035Z,9.69
2023-04-15T19:17:07.374Z,9.57
2023-04-15T19:22:01.694Z,9.66
2023-04-15T19:26:57.236Z,9.81
2023-04-15T19:31:50.625Z,9.44
2023-04-15T19:36:44.324Z,9.23
2023-04-15T19:41:39.224Z,9.28
2023-04-15T19:46:34.188Z,9.40
2023-04-15T19:51:28.584Z,9.39
2023-04-15T19:56:23.899Z,9.35
2023-04-15T20:01:17.392Z,9.14
2023-04-15T20:06:12.181Z,8.96
2023-04-15T20:11:05.627Z,8.80
2023-04-15T20:15:59.045Z,8.73
2023-04-15T20:20:54.824Z,8.95
2023-04-15T20:26:07.144Z,8.97
2023-04-15T20:31:05.007Z,8.96
2023-04-15T20:36:01.528Z,9.13
2023-04-15T20:40:54.902Z,9.00
2023-04-15T20:45:51.487Z,9.01
2023-04-15T20:50:44.882Z,9.04
2023-04-15T20:55:38.186Z,9.10
2023-04-15T21:00:33.080Z,8.96
2023-04-15T21:05:30.492Z,8.89
2023-04-15T21:10:23.902Z,8.82
2023-04-15T21:15:17.571Z,8.96
2023-04-15T21:20:12.711Z,8.87
2023-04-15T21:25:08.814Z,8.95
2023-04-15T21:30:02.363Z,8.79
2023-04-15T21:34:55.749Z,8.86
2023-04-15T21:39:49.173Z,8.85
2023-04-15T21:44:43.843Z,8.58
2023-04-15T21:49:37.177Z,8.76
2023-04-15T21:54:31.247Z,8.72
2023-04-15T21:59:24.705Z,8.76
2023-04-15T22:04:19.465Z,8.41
2023-04-15T22:09:14.419Z,8.36
2023-04-15T22:14:07.879Z,8.42
2023-04-15T22:19:02.639Z,8.51
2023-04-15T22:24:33.282Z,8.59
2023-04-15T22:29:11.074Z,8.56
2023-04-15T22:34:04.409Z,8.53
2023-04-15T22:38:59.100Z,8.55
2023-04-15T22:43:52.470Z,8.52
2023-04-15T22:48:45.979Z,8.45
2023-04-15T22:53:39.233Z,8.52
2023-04-15T22:58:33.853Z,8.51
2023-04-15T23:03:27.238Z,8.54
2023-04-15T23:08:23.869Z,8.36
2023-04-15T23:13:17.245Z,8.23
2023-04-15T23:18:11.961Z,8.35
2023-04-15T23:23:05.295Z,8.16
2023-04-15T23:27:58.648Z,8.23
2023-04-15T23:32:51.991Z,8.21
2023-04-15T23:37:46.717Z,8.18
2023-04-15T23:42:40.050Z,8.13
2023-04-15T23:47:33.437Z,8.00
2023-04-15T23:52:26.892Z,8.08
2023-04-15T23:57:21.567Z,8.09
